createdAt,value
2023-01-30T00:00:20.456Z,995.47
2023-01-30T00:01:21.413Z,995.44
2023-01-30T00:02:20.395Z,995.32
2023-01-30T00:03:20.389Z,995.36
2023-01-30T00:04:20.483Z,995.31
2023-01-30T00:05:20.361Z,995.28
2023-01-30T00:06:20.355Z,995.22
2023-01-30T00:07:20.346Z,995.22
2023-01-30T00:08:20.299Z,995.17
2023-01-30T00:09:20.296Z,995.12
2023-01-30T00:10:20.385Z,994.99
2023-01-30T00:11:20.272Z,994.91
2023-01-30T00:12:20.290Z,994.89
2023-01-30T00:13:20.231Z,994.89
2023-01-30T00:14:20.222Z,994.91
2023-01-30T00:15:20.215Z,994.80
2023-01-30T00:16:20.243Z,994.94
2023-01-30T00:17:20.251Z,994.75
2023-01-30T00:18:20.157Z,994.98
2023-01-30T00:19:20.765Z,994.95
2023-01-30T00:20:20.591Z,994.91
2023-01-30T00:21:20.159Z,994.83
2023-01-30T00:22:20.171Z,994.87
2023-01-30T00:23:20.142Z,994.73
2023-01-30T00:24:20.242Z,994.60
2023-01-30T00:25:20.341Z,994.56
2023-01-30T00:26:21.284Z,994.86
2023-01-30T00:27:20.079Z,994.98
2023-01-30T00:28:20.154Z,995.00
2023-01-30T00:29:20.263Z,995.03
2023-01-30T00:30:20.237Z,995.09
2023-01-30T00:31:20.064Z,995.42
2023-01-30T00:32:20.024Z,995.35
2023-01-30T00:33:20.057Z,995.31
2023-01-30T00:34:20.006Z,995.09
2023-01-30T00:35:19.993Z,994.89
2023-01-30T00:36:20.004Z,994.79
2023-01-30T00:37:20.036Z,994.76
2023-01-30T00:38:20.102Z,994.75
2023-01-30T00:39:19.957Z,994.84
2023-01-30T00:40:20.423Z,994.73
2023-01-30T00:41:19.952Z,994.66
2023-01-30T00:42:19.950Z,994.68
2023-01-30T00:43:19.983Z,994.58
2023-01-30T00:44:20.016Z,994.60
2023-01-30T00:45:20.463Z,994.66
2023-01-30T00:46:19.896Z,994.63
2023-01-30T00:47:19.877Z,994.57
2023-01-30T00:48:19.832Z,994.66
2023-01-30T00:49:19.919Z,994.69
2023-01-30T00:50:19.877Z,994.65
2023-01-30T00:51:19.924Z,994.57
2023-01-30T00:52:19.878Z,994.66
2023-01-30T00:53:20.059Z,994.49
2023-01-30T00:54:19.893Z,994.42
2023-01-30T00:55:20.011Z,994.38
2023-01-30T00:56:19.787Z,994.40
2023-01-30T00:57:19.747Z,994.64
2023-01-30T00:58:19.780Z,994.42
2023-01-30T00:59:19.759Z,994.34
2023-01-30T01:00:19.878Z,994.36
2023-01-30T01:01:19.770Z,994.54
2023-01-30T01:02:19.822Z,994.55
2023-01-30T01:03:19.970Z,994.54
2023-01-30T01:04:19.753Z,994.48
2023-01-30T01:05:20.230Z,994.48
2023-01-30T01:06:19.674Z,994.43
2023-01-30T01:07:21.265Z,994.56
2023-01-30T01:08:20.035Z,994.41
2023-01-30T01:09:19.662Z,994.49
2023-01-30T01:10:19.663Z,994.53
2023-01-30T01:11:21.450Z,994.33
2023-01-30T01:12:19.657Z,994.41
2023-01-30T01:13:19.702Z,994.53
2023-01-30T01:14:19.648Z,994.58
2023-01-30T01:15:19.833Z,994.37
2023-01-30T01:16:19.621Z,994.42
2023-01-30T01:17:19.657Z,994.45
2023-01-30T01:18:19.582Z,994.40
2023-01-30T01:19:19.531Z,994.35
2023-01-30T01:20:19.570Z,994.28
2023-01-30T01:21:20.375Z,994.24
2023-01-30T01:22:19.651Z,994.16
2023-01-30T01:23:19.591Z,994.06
2023-01-30T01:24:19.512Z,994.05
2023-01-30T01:25:19.772Z,993.91
2023-01-30T01:26:19.490Z,993.89
2023-01-30T01:27:19.653Z,993.94
2023-01-30T01:28:19.457Z,993.89
2023-01-30T01:29:19.459Z,994.05
2023-01-30T01:30:19.503Z,994.08
2023-01-30T01:31:20.101Z,993.98
2023-01-30T01:32:19.447Z,993.90
2023-01-30T01:33:19.400Z,994.08
2023-01-30T01:34:19.369Z,994.06
2023-01-30T01:35:19.896Z,993.94
2023-01-30T01:36:42.323Z,993.86
2023-01-30T01:37:21.578Z,993.92
2023-01-30T01:38:19.391Z,993.77
2023-01-30T01:39:19.316Z,993.94
2023-01-30T01:40:19.342Z,993.80
2023-01-30T01:41:19.309Z,993.84
2023-01-30T01:42:19.275Z,993.93
2023-01-30T01:43:19.385Z,993.80
2023-01-30T01:44:19.283Z,993.72
2023-01-30T01:45:19.629Z,993.79
2023-01-30T01:46:20.047Z,993.91
2023-01-30T01:47:19.354Z,993.88
2023-01-30T01:48:19.248Z,993.82
2023-01-30T01:49:20.259Z,993.88
2023-01-30T01:50:19.315Z,993.86
2023-01-30T01:51:19.223Z,993.85
2023-01-30T01:52:19.387Z,993.77
2023-01-30T01:53:19.212Z,993.79
2023-01-30T01:54:19.168Z,993.62
2023-01-30T01:55:19.330Z,993.65
2023-01-30T01:56:19.141Z,993.65
2023-01-30T01:57:19.169Z,993.70
2023-01-30T01:58:19.148Z,993.59
2023-01-30T01:59:19.156Z,993.48
2023-01-30T02:00:19.106Z,993.49
2023-01-30T02:01:19.150Z,993.38
2023-01-30T02:02:19.142Z,993.31
2023-01-30T02:03:19.118Z,993.37
2023-01-30T02:04:19.084Z,993.22
2023-01-30T02:05:19.456Z,993.40
2023-01-30T02:06:19.050Z,993.27
2023-01-30T02:07:19.242Z,993.25
2023-01-30T02:08:19.081Z,993.19
2023-01-30T02:09:19.036Z,993.16
2023-01-30T02:10:19.045Z,993.07
2023-01-30T02:11:20.137Z,992.97
2023-01-30T02:12:19.008Z,993.07
2023-01-30T02:13:18.980Z,993.03
2023-01-30T02:14:18.969Z,993.07
2023-01-30T02:15:19.340Z,992.93
2023-01-30T02:16:19.004Z,993.02
2023-01-30T02:17:19.038Z,993.02
2023-01-30T02:18:18.927Z,993.00
2023-01-30T02:19:18.905Z,993.03
2023-01-30T02:20:18.891Z,992.98
2023-01-30T02:21:18.950Z,993.02
2023-01-30T02:22:18.934Z,992.96
2023-01-30T02:23:18.857Z,993.02
2023-01-30T02:24:18.855Z,993.04
2023-01-30T02:25:19.220Z,992.99
2023-01-30T02:26:18.885Z,992.98
2023-01-30T02:27:18.864Z,992.98
2023-01-30T02:28:18.892Z,992.97
2023-01-30T02:29:18.826Z,993.00
2023-01-30T02:30:18.906Z,992.90
2023-01-30T02:31:18.976Z,992.93
2023-01-30T02:32:18.794Z,992.90
2023-01-30T02:33:18.778Z,992.85
2023-01-30T02:34:18.766Z,992.81
2023-01-30T02:35:19.252Z,992.81
2023-01-30T02:36:18.743Z,992.82
2023-01-30T02:37:18.731Z,992.84
2023-01-30T02:38:18.761Z,992.85
2023-01-30T02:39:18.814Z,992.88
2023-01-30T02:40:18.675Z,992.83
2023-01-30T02:41:18.690Z,992.73
2023-01-30T02:42:18.677Z,992.67
2023-01-30T02:43:18.676Z,992.67
2023-01-30T02:44:18.675Z,992.72
2023-01-30T02:45:18.920Z,992.78
2023-01-30T02:46:18.675Z,992.75
2023-01-30T02:47:18.652Z,992.60
2023-01-30T02:48:18.644Z,992.59
2023-01-30T02:49:18.646Z,992.56
2023-01-30T02:50:18.587Z,992.50
2023-01-30T02:51:18.549Z,992.55
2023-01-30T02:52:18.764Z,992.38
2023-01-30T02:53:19.098Z,992.25
2023-01-30T02:54:18.515Z,992.25
2023-01-30T02:55:18.814Z,992.19
2023-01-30T02:56:18.522Z,992.18
2023-01-30T02:57:18.524Z,992.12
2023-01-30T02:58:18.544Z,992.16
2023-01-30T02:59:18.527Z,992.21
2023-01-30T03:00:18.451Z,992.08
2023-01-30T03:01:18.552Z,992.06
2023-01-30T03:02:18.489Z,992.19
2023-01-30T03:03:19.023Z,992.23
2023-01-30T03:04:18.513Z,992.17
2023-01-30T03:05:18.932Z,991.98
2023-01-30T03:06:18.414Z,992.09
2023-01-30T03:07:18.396Z,992.11
2023-01-30T03:08:19.493Z,992.11
2023-01-30T03:09:18.376Z,992.10
2023-01-30T03:10:19.402Z,992.15
2023-01-30T03:11:18.388Z,992.14
2023-01-30T03:12:18.354Z,992.02
2023-01-30T03:13:18.347Z,991.97
2023-01-30T03:14:18.331Z,991.98
2023-01-30T03:15:18.604Z,991.89
2023-01-30T03:16:18.436Z,991.88
2023-01-30T03:17:18.304Z,992.02
2023-01-30T03:18:18.280Z,992.02
2023-01-30T03:19:18.263Z,992.04
2023-01-30T03:20:18.298Z,992.10
2023-01-30T03:21:18.282Z,991.98
2023-01-30T03:22:18.303Z,991.99
2023-01-30T03:23:18.399Z,992.08
2023-01-30T03:24:18.408Z,991.99
2023-01-30T03:25:19.120Z,992.06
2023-01-30T03:26:18.248Z,991.94
2023-01-30T03:27:18.415Z,991.98
2023-01-30T03:28:19.337Z,991.92
2023-01-30T03:29:19.205Z,991.95
2023-01-30T03:30:18.835Z,991.90
2023-01-30T03:31:18.265Z,991.88
2023-01-30T03:32:18.116Z,991.80
2023-01-30T03:33:18.100Z,991.78
2023-01-30T03:34:18.053Z,991.69
2023-01-30T03:35:19.028Z,991.77
2023-01-30T03:36:18.152Z,991.77
2023-01-30T03:37:18.053Z,991.74
2023-01-30T03:38:18.029Z,991.68
2023-01-30T03:39:18.024Z,991.75
2023-01-30T03:40:18.003Z,991.62
2023-01-30T03:41:18.308Z,991.61
2023-01-30T03:42:18.737Z,991.74
2023-01-30T03:43:19.025Z,991.43
2023-01-30T03:44:19.837Z,991.60
2023-01-30T03:45:20.332Z,991.61
2023-01-30T03:46:19.666Z,991.61
2023-01-30T03:47:17.949Z,991.54
2023-01-30T03:48:19.148Z,991.59
2023-01-30T03:49:17.949Z,991.61
2023-01-30T03:50:18.062Z,991.50
2023-01-30T03:51:18.450Z,991.56
2023-01-30T03:52:18.357Z,991.46
2023-01-30T03:53:17.946Z,991.60
2023-01-30T03:54:17.854Z,991.48
2023-01-30T03:55:18.201Z,991.63
2023-01-30T03:56:17.870Z,991.58
2023-01-30T03:57:17.850Z,991.69
2023-01-30T03:58:17.831Z,991.64
2023-01-30T03:59:19.586Z,991.53
2023-01-30T04:00:17.973Z,991.53
2023-01-30T04:01:20.024Z,991.75
2023-01-30T04:02:18.811Z,991.63
2023-01-30T04:03:18.083Z,991.67
2023-01-30T04:04:17.917Z,991.54
2023-01-30T04:05:18.167Z,991.57
2023-01-30T04:06:17.738Z,991.50
2023-01-30T04:07:17.713Z,991.37
2023-01-30T04:08:21.325Z,991.49
2023-01-30T04:09:17.677Z,991.39
2023-01-30T04:10:17.668Z,991.35
2023-01-30T04:11:17.661Z,991.35
2023-01-30T04:12:18.235Z,991.37
2023-01-30T04:13:17.656Z,991.39
2023-01-30T04:14:17.642Z,991.36
2023-01-30T04:15:18.163Z,991.34
2023-01-30T04:16:17.690Z,991.33
2023-01-30T04:17:18.312Z,991.18
2023-01-30T04:18:18.007Z,991.19
2023-01-30T04:19:19.082Z,991.17
2023-01-30T04:20:17.558Z,991.18
2023-01-30T04:21:17.790Z,991.06
2023-01-30T04:22:17.599Z,990.99
2023-01-30T04:23:17.519Z,991.07
2023-01-30T04:24:17.554Z,990.99
2023-01-30T04:25:17.844Z,990.97
2023-01-30T04:26:18.176Z,990.93
2023-01-30T04:27:17.476Z,990.86
2023-01-30T04:28:17.475Z,990.84
2023-01-30T04:29:17.921Z,990.84
2023-01-30T04:30:18.090Z,990.79
2023-01-30T04:31:17.727Z,990.79
2023-01-30T04:32:17.932Z,990.71
2023-01-30T04:33:18.080Z,990.63
2023-01-30T04:34:17.411Z,990.68
2023-01-30T04:35:17.851Z,990.71
2023-01-30T04:36:17.904Z,990.68
2023-01-30T04:37:17.384Z,990.62
2023-01-30T04:38:20.201Z,990.70
2023-01-30T04:39:20.536Z,990.79
2023-01-30T04:40:19.961Z,990.72
2023-01-30T04:41:19.256Z,990.75
2023-01-30T04:42:20.974Z,990.69
2023-01-30T04:43:17.399Z,990.72
2023-01-30T04:44:17.427Z,990.62
2023-01-30T04:45:17.589Z,990.57
2023-01-30T04:46:17.288Z,990.41
2023-01-30T04:47:17.419Z,990.61
2023-01-30T04:48:17.340Z,990.46
2023-01-30T04:49:17.310Z,990.53
2023-01-30T04:50:17.267Z,990.51
2023-01-30T04:51:17.224Z,990.62
2023-01-30T04:52:17.267Z,990.58
2023-01-30T04:53:17.230Z,990.51
2023-01-30T04:54:17.267Z,990.45
2023-01-30T04:55:17.415Z,990.51
2023-01-30T04:56:17.241Z,990.54
2023-01-30T04:57:17.152Z,990.60
2023-01-30T04:58:17.126Z,990.52
2023-01-30T04:59:17.175Z,990.52
2023-01-30T05:00:17.193Z,990.47
2023-01-30T05:01:17.332Z,990.43
2023-01-30T05:02:17.202Z,990.48
2023-01-30T05:03:17.135Z,990.57
2023-01-30T05:04:17.266Z,990.54
2023-01-30T05:05:18.429Z,990.47
2023-01-30T05:06:17.070Z,990.45
2023-01-30T05:07:17.077Z,990.34
2023-01-30T05:08:17.084Z,990.39
2023-01-30T05:09:17.030Z,990.46
2023-01-30T05:10:17.045Z,990.33
2023-01-30T05:11:17.060Z,990.42
2023-01-30T05:12:17.015Z,990.46
2023-01-30T05:13:17.118Z,990.42
2023-01-30T05:14:16.990Z,990.44
2023-01-30T05:15:17.279Z,990.45
2023-01-30T05:16:16.953Z,990.40
2023-01-30T05:17:17.049Z,990.35
2023-01-30T05:18:17.057Z,990.37
2023-01-30T05:19:17.044Z,990.42
2023-01-30T05:20:16.925Z,990.42
2023-01-30T05:21:16.968Z,990.26
2023-01-30T05:22:16.971Z,990.30
2023-01-30T05:23:16.918Z,990.25
2023-01-30T05:24:17.863Z,990.28
2023-01-30T05:25:17.210Z,990.28
2023-01-30T05:26:16.926Z,990.28
2023-01-30T05:27:16.918Z,990.16
2023-01-30T05:28:18.686Z,990.13
2023-01-30T05:29:18.085Z,990.09
2023-01-30T05:30:18.703Z,990.16
2023-01-30T05:31:19.120Z,990.05
2023-01-30T05:32:19.139Z,990.10
2023-01-30T05:33:17.111Z,990.19
2023-01-30T05:34:18.786Z,990.15
2023-01-30T05:35:17.375Z,990.15
2023-01-30T05:36:16.763Z,990.18
2023-01-30T05:37:16.799Z,990.19
2023-01-30T05:38:16.730Z,990.08
2023-01-30T05:39:16.695Z,990.18
2023-01-30T05:40:16.722Z,990.09
2023-01-30T05:41:16.692Z,990.15
2023-01-30T05:42:16.643Z,990.11
2023-01-30T05:43:16.734Z,990.23
2023-01-30T05:44:16.636Z,990.09
2023-01-30T05:45:17.143Z,989.97
2023-01-30T05:46:16.683Z,990.03
2023-01-30T05:47:16.848Z,990.04
2023-01-30T05:48:19.507Z,990.05
2023-01-30T05:49:18.351Z,989.98
2023-01-30T05:50:17.364Z,990.05
2023-01-30T05:51:20.144Z,989.96
2023-01-30T05:52:18.151Z,989.99
2023-01-30T05:53:18.168Z,990.00
2023-01-30T05:54:19.808Z,990.05
2023-01-30T05:55:20.339Z,990.02
2023-01-30T05:56:18.591Z,990.02
2023-01-30T05:57:16.544Z,989.96
2023-01-30T05:58:16.543Z,990.00
2023-01-30T05:59:16.665Z,989.99
2023-01-30T06:00:18.019Z,989.87
2023-01-30T06:01:19.682Z,989.95
2023-01-30T06:02:18.776Z,989.97
2023-01-30T06:03:18.117Z,990.00
2023-01-30T06:04:18.896Z,989.95
2023-01-30T06:05:19.845Z,990.01
2023-01-30T06:06:19.646Z,990.00
2023-01-30T06:07:19.154Z,989.90
2023-01-30T06:08:20.420Z,989.96
2023-01-30T06:09:20.135Z,990.02
2023-01-30T06:10:18.057Z,990.09
2023-01-30T06:11:18.149Z,990.03
2023-01-30T06:12:19.423Z,990.04
2023-01-30T06:13:19.287Z,990.02
2023-01-30T06:14:17.840Z,990.18
2023-01-30T06:15:21.530Z,990.05
2023-01-30T06:16:19.342Z,990.13
2023-01-30T06:17:21.630Z,990.04
2023-01-30T06:18:18.003Z,990.14
2023-01-30T06:19:18.314Z,990.12
2023-01-30T06:20:20.410Z,990.16
2023-01-30T06:21:22.410Z,990.14
2023-01-30T06:22:17.446Z,990.09
2023-01-30T06:23:17.765Z,990.18
2023-01-30T06:24:19.962Z,990.08
2023-01-30T06:25:18.163Z,990.08
2023-01-30T06:26:19.654Z,990.04
2023-01-30T06:27:20.494Z,990.16
2023-01-30T06:28:18.934Z,990.27
2023-01-30T06:29:18.249Z,990.11
2023-01-30T06:30:18.596Z,990.09
2023-01-30T06:31:19.651Z,990.03
2023-01-30T06:32:19.557Z,990.08
2023-01-30T06:33:16.153Z,990.04
2023-01-30T06:34:16.129Z,990.01
2023-01-30T06:35:16.558Z,990.03
2023-01-30T06:36:16.267Z,989.95
2023-01-30T06:37:18.852Z,989.99
2023-01-30T06:38:18.782Z,989.87
2023-01-30T06:39:19.234Z,989.98
2023-01-30T06:40:18.393Z,990.08
2023-01-30T06:41:20.183Z,989.96
2023-01-30T06:42:18.404Z,990.10
2023-01-30T06:43:15.985Z,990.08
2023-01-30T06:44:16.027Z,990.00
2023-01-30T06:45:16.667Z,990.03
2023-01-30T06:46:16.540Z,990.06
2023-01-30T06:47:17.526Z,989.98
2023-01-30T06:48:17.659Z,990.09
2023-01-30T06:49:19.789Z,990.10
2023-01-30T06:50:18.040Z,990.11
2023-01-30T06:51:20.116Z,990.11
2023-01-30T06:52:19.058Z,990.16
2023-01-30T06:53:17.422Z,990.10
2023-01-30T06:54:20.128Z,990.12
2023-01-30T06:55:18.911Z,990.12
2023-01-30T06:56:18.488Z,990.06
2023-01-30T06:57:19.665Z,990.19
2023-01-30T06:58:18.687Z,990.14
2023-01-30T06:59:17.856Z,990.11
2023-01-30T07:00:20.239Z,990.15
2023-01-30T07:01:21.004Z,990.10
2023-01-30T07:02:15.794Z,990.18
2023-01-30T07:03:19.536Z,990.13
2023-01-30T07:04:20.124Z,990.15
2023-01-30T07:05:17.610Z,990.13
2023-01-30T07:06:16.563Z,990.18
2023-01-30T07:07:20.650Z,990.10
2023-01-30T07:08:19.809Z,990.01
2023-01-30T07:09:19.219Z,990.26
2023-01-30T07:10:22.476Z,990.23
2023-01-30T07:11:18.946Z,990.17
2023-01-30T07:12:17.265Z,990.15
2023-01-30T07:13:18.970Z,990.19
2023-01-30T07:14:17.424Z,990.09
2023-01-30T07:15:17.473Z,990.05
2023-01-30T07:16:16.919Z,989.97
2023-01-30T07:17:19.594Z,990.08
2023-01-30T07:18:19.037Z,990.05
2023-01-30T07:19:16.273Z,990.07
2023-01-30T07:20:16.129Z,990.12
2023-01-30T07:21:15.873Z,990.10
2023-01-30T07:22:18.927Z,990.06
2023-01-30T07:23:18.587Z,990.16
2023-01-30T07:24:15.726Z,989.96
2023-01-30T07:25:15.746Z,990.10
2023-01-30T07:26:17.872Z,990.09
2023-01-30T07:27:18.676Z,990.04
2023-01-30T07:28:17.849Z,990.05
2023-01-30T07:29:17.181Z,990.03
2023-01-30T07:30:16.493Z,990.04
2023-01-30T07:31:19.151Z,990.11
2023-01-30T07:32:17.901Z,990.07
2023-01-30T07:33:17.063Z,989.90
2023-01-30T07:34:18.651Z,990.08
2023-01-30T07:35:20.485Z,989.98
2023-01-30T07:36:17.968Z,989.99
2023-01-30T07:37:17.629Z,989.96
2023-01-30T07:38:18.863Z,989.92
2023-01-30T07:39:16.930Z,989.95
2023-01-30T07:40:15.355Z,989.95
2023-01-30T07:41:18.297Z,989.96
2023-01-30T07:42:17.711Z,989.95
2023-01-30T07:43:18.099Z,989.90
2023-01-30T07:44:20.254Z,989.89
2023-01-30T07:45:18.310Z,989.86
2023-01-30T07:46:16.919Z,989.85
2023-01-30T07:47:17.250Z,989.82
2023-01-30T07:48:17.847Z,989.90
2023-01-30T07:49:17.320Z,989.84
2023-01-30T07:50:17.449Z,989.92
2023-01-30T07:51:18.565Z,989.93
2023-01-30T07:52:16.569Z,990.10
2023-01-30T07:53:16.318Z,989.92
2023-01-30T07:54:15.548Z,990.00
2023-01-30T07:55:18.877Z,990.10
2023-01-30T07:56:16.585Z,990.09
2023-01-30T07:57:19.212Z,989.97
2023-01-30T07:58:15.164Z,989.97
2023-01-30T07:59:15.171Z,989.95
2023-01-30T08:00:15.375Z,990.02
2023-01-30T08:01:17.709Z,989.97
2023-01-30T08:02:19.597Z,989.87
2023-01-30T08:03:16.277Z,989.87
2023-01-30T08:04:15.423Z,989.94
2023-01-30T08:05:15.109Z,989.84
2023-01-30T08:06:15.083Z,989.99
2023-01-30T08:07:15.408Z,990.01
2023-01-30T08:08:15.043Z,990.02
2023-01-30T08:09:15.230Z,989.99
2023-01-30T08:10:15.959Z,989.88
2023-01-30T08:11:16.579Z,989.95
2023-01-30T08:12:15.594Z,990.03
2023-01-30T08:13:15.820Z,989.93
2023-01-30T08:14:15.180Z,989.91
2023-01-30T08:15:15.217Z,989.95
2023-01-30T08:16:16.587Z,989.95
2023-01-30T08:17:15.257Z,989.83
2023-01-30T08:18:15.923Z,989.84
2023-01-30T08:19:15.128Z,989.94
2023-01-30T08:20:17.765Z,989.93
2023-01-30T08:21:16.448Z,989.85
2023-01-30T08:22:16.313Z,989.98
2023-01-30T08:23:15.179Z,990.17
2023-01-30T08:24:16.120Z,989.95
2023-01-30T08:25:15.310Z,989.96
2023-01-30T08:26:14.965Z,989.93
2023-01-30T08:27:14.889Z,989.81
2023-01-30T08:28:14.967Z,989.85
2023-01-30T08:29:14.846Z,989.82
2023-01-30T08:30:14.830Z,989.78
2023-01-30T08:31:14.916Z,989.79
2023-01-30T08:32:15.890Z,989.86
2023-01-30T08:33:15.814Z,989.80
2023-01-30T08:34:14.834Z,989.83
2023-01-30T08:35:14.774Z,989.86
2023-01-30T08:36:14.775Z,989.85
2023-01-30T08:37:14.756Z,989.77
2023-01-30T08:38:14.765Z,989.80
2023-01-30T08:39:14.718Z,989.76
2023-01-30T08:40:14.777Z,989.73
2023-01-30T08:41:14.758Z,989.75
2023-01-30T08:42:14.761Z,989.70
2023-01-30T08:43:14.728Z,989.76
2023-01-30T08:44:14.706Z,989.76
2023-01-30T08:45:14.753Z,989.75
2023-01-30T08:46:16.098Z,989.71
2023-01-30T08:47:17.080Z,989.65
2023-01-30T08:48:18.669Z,989.71
2023-01-30T08:49:17.545Z,989.60
2023-01-30T08:50:17.598Z,989.73
2023-01-30T08:51:18.777Z,989.55
2023-01-30T08:52:17.685Z,989.65
2023-01-30T08:53:17.486Z,989.61
2023-01-30T08:54:18.388Z,989.65
2023-01-30T08:55:18.820Z,989.65
2023-01-30T08:56:15.998Z,989.75
2023-01-30T08:57:18.037Z,989.69
2023-01-30T08:58:18.589Z,989.65
2023-01-30T08:59:15.258Z,989.82
2023-01-30T09:00:17.456Z,989.74
2023-01-30T09:01:16.367Z,989.82
2023-01-30T09:02:18.884Z,989.88
2023-01-30T09:03:16.745Z,989.82
2023-01-30T09:04:46.838Z,989.87
2023-01-30T09:05:46.847Z,989.84
2023-01-30T09:06:50.182Z,989.88
2023-01-30T09:07:50.116Z,989.83
2023-01-30T09:08:48.972Z,989.94
2023-01-30T09:09:48.062Z,989.99
2023-01-30T09:10:46.771Z,989.96
2023-01-30T09:11:46.763Z,990.00
2023-01-30T09:12:47.791Z,990.00
2023-01-30T09:13:49.828Z,990.17
2023-01-30T09:14:48.143Z,990.51
2023-01-30T09:15:47.307Z,990.79
2023-01-30T09:16:46.958Z,990.90
2023-01-30T09:17:49.158Z,990.94
2023-01-30T09:18:51.316Z,990.76
2023-01-30T09:19:48.302Z,990.29
2023-01-30T09:20:16.694Z,990.29
2023-01-30T09:21:48.063Z,990.25
2023-01-30T09:22:47.650Z,990.24
2023-01-30T09:23:44.242Z,990.34
2023-01-30T09:24:46.643Z,990.41
2023-01-30T09:25:17.636Z,990.40
2023-01-30T09:26:46.660Z,990.25
2023-01-30T09:27:17.347Z,990.30
2023-01-30T09:28:20.667Z,990.26
2023-01-30T09:29:18.984Z,990.26
2023-01-30T09:30:14.355Z,990.34
2023-01-30T09:31:14.678Z,990.23
2023-01-30T09:32:16.675Z,990.23
2023-01-30T09:33:16.127Z,990.26
2023-01-30T09:34:15.546Z,990.22
2023-01-30T09:35:14.618Z,990.24
2023-01-30T09:36:16.963Z,990.25
2023-01-30T09:37:15.304Z,990.19
2023-01-30T09:38:17.681Z,990.17
2023-01-30T09:39:15.830Z,990.15
2023-01-30T09:40:17.139Z,990.24
2023-01-30T09:41:16.308Z,990.26
2023-01-30T09:42:18.417Z,990.16
2023-01-30T09:43:16.283Z,990.12
2023-01-30T09:44:16.478Z,990.11
2023-01-30T09:45:18.381Z,990.17
2023-01-30T09:46:17.484Z,990.23
2023-01-30T09:47:17.016Z,990.21
2023-01-30T09:48:17.976Z,990.05
2023-01-30T09:49:14.037Z,990.05
2023-01-30T09:50:14.088Z,989.98
2023-01-30T09:51:14.071Z,990.02
2023-01-30T09:52:14.037Z,989.93
2023-01-30T09:53:14.247Z,990.07
2023-01-30T09:54:13.964Z,989.98
2023-01-30T09:55:13.972Z,990.03
2023-01-30T09:56:13.992Z,989.99
2023-01-30T09:57:20.897Z,990.06
2023-01-30T09:58:14.890Z,990.01
2023-01-30T09:59:13.920Z,989.97
2023-01-30T10:00:13.964Z,989.99
2023-01-30T10:01:13.884Z,990.03
2023-01-30T10:02:13.891Z,989.93
2023-01-30T10:03:13.915Z,989.94
2023-01-30T10:04:13.836Z,989.98
2023-01-30T10:05:13.853Z,990.06
2023-01-30T10:06:13.815Z,990.03
2023-01-30T10:07:13.810Z,990.18
2023-01-30T10:08:13.805Z,990.18
2023-01-30T10:09:13.843Z,990.13
2023-01-30T10:10:13.819Z,990.11
2023-01-30T10:11:13.774Z,990.18
2023-01-30T10:12:13.776Z,990.23
2023-01-30T10:13:13.724Z,990.22
2023-01-30T10:14:13.802Z,990.22
2023-01-30T10:15:13.729Z,990.26
2023-01-30T10:16:13.757Z,990.25
2023-01-30T10:17:13.713Z,990.17
2023-01-30T10:18:13.675Z,990.18
2023-01-30T10:19:18.162Z,990.18
2023-01-30T10:20:15.683Z,990.22
2023-01-30T10:21:13.649Z,990.26
2023-01-30T10:22:13.629Z,990.27
2023-01-30T10:23:13.890Z,990.06
2023-01-30T10:24:13.629Z,990.23
2023-01-30T10:25:13.648Z,990.28
2023-01-30T10:26:13.664Z,990.21
2023-01-30T10:27:13.574Z,990.21
2023-01-30T10:28:13.573Z,990.09
2023-01-30T10:29:13.633Z,990.22
2023-01-30T10:30:13.580Z,990.21
2023-01-30T10:31:13.681Z,990.19
2023-01-30T10:32:13.545Z,990.18
2023-01-30T10:33:13.612Z,990.33
2023-01-30T10:34:13.508Z,990.22
2023-01-30T10:35:13.517Z,990.19
2023-01-30T10:36:13.472Z,990.22
2023-01-30T10:37:13.518Z,990.27
2023-01-30T10:38:13.479Z,990.35
2023-01-30T10:39:13.469Z,990.25
2023-01-30T10:40:13.445Z,990.21
2023-01-30T10:41:13.452Z,990.23
2023-01-30T10:42:13.553Z,990.31
2023-01-30T10:43:13.537Z,990.18
2023-01-30T10:44:13.478Z,990.05
2023-01-30T10:45:13.399Z,990.28
2023-01-30T10:46:13.399Z,990.39
2023-01-30T10:47:13.433Z,990.26
2023-01-30T10:48:13.321Z,990.30
2023-01-30T10:49:13.383Z,990.21
2023-01-30T10:50:13.353Z,990.17
2023-01-30T10:51:13.328Z,989.98
2023-01-30T10:52:13.344Z,989.99
2023-01-30T10:53:13.314Z,990.05
2023-01-30T10:54:13.304Z,990.11
2023-01-30T10:55:13.308Z,990.04
2023-01-30T10:56:13.259Z,990.03
2023-01-30T10:57:13.271Z,990.00
2023-01-30T10:58:13.205Z,990.06
2023-01-30T10:59:14.206Z,990.00
2023-01-30T11:00:13.455Z,989.89
2023-01-30T11:01:13.258Z,989.99
2023-01-30T11:02:13.214Z,989.97
2023-01-30T11:03:13.263Z,990.03
2023-01-30T11:04:13.191Z,989.84
2023-01-30T11:05:13.229Z,989.85
2023-01-30T11:06:13.283Z,989.87
2023-01-30T11:07:13.182Z,989.95
2023-01-30T11:08:13.192Z,990.02
2023-01-30T11:09:13.101Z,990.03
2023-01-30T11:10:13.193Z,990.06
2023-01-30T11:11:13.095Z,990.17
2023-01-30T11:12:13.083Z,990.08
2023-01-30T11:13:13.101Z,990.09
2023-01-30T11:14:13.077Z,990.06
2023-01-30T11:15:13.553Z,990.01
2023-01-30T11:16:13.545Z,990.10
2023-01-30T11:17:13.056Z,990.01
2023-01-30T11:18:49.806Z,989.97
2023-01-30T11:19:20.681Z,989.99
2023-01-30T11:20:15.029Z,990.11
2023-01-30T11:21:12.952Z,990.10
2023-01-30T11:22:13.081Z,989.89
2023-01-30T11:23:12.991Z,990.01
2023-01-30T11:24:12.957Z,989.86
2023-01-30T11:25:12.958Z,989.99
2023-01-30T11:26:13.053Z,989.90
2023-01-30T11:27:12.962Z,989.91
2023-01-30T11:28:13.908Z,990.01
2023-01-30T11:29:12.929Z,989.95
2023-01-30T11:30:12.904Z,989.99
2023-01-30T11:31:12.998Z,989.98
2023-01-30T11:32:12.941Z,989.90
2023-01-30T11:33:12.881Z,989.98
2023-01-30T11:34:12.885Z,989.98
2023-01-30T11:35:12.849Z,990.04
2023-01-30T11:36:12.819Z,989.94
2023-01-30T11:37:12.818Z,989.85
2023-01-30T11:38:12.833Z,989.85
2023-01-30T11:39:12.791Z,989.98
2023-01-30T11:40:12.830Z,989.89
2023-01-30T11:41:13.165Z,989.80
2023-01-30T11:42:13.016Z,989.76
2023-01-30T11:43:12.767Z,989.76
2023-01-30T11:44:13.082Z,989.96
2023-01-30T11:45:17.869Z,989.63
2023-01-30T11:46:14.816Z,989.64
2023-01-30T11:47:12.920Z,989.58
2023-01-30T11:48:28.704Z,989.48
2023-01-30T11:49:47.246Z,989.34
2023-01-30T11:50:28.595Z,989.40
2023-01-30T11:51:13.758Z,989.54
2023-01-30T11:52:12.685Z,989.55
2023-01-30T11:53:45.087Z,989.59
2023-01-30T11:54:12.651Z,989.47
2023-01-30T11:55:12.624Z,989.40
2023-01-30T11:56:13.124Z,989.32
2023-01-30T11:57:12.650Z,989.40
2023-01-30T11:58:12.628Z,989.33
2023-01-30T11:59:12.582Z,989.38
2023-01-30T12:00:12.709Z,989.26
2023-01-30T12:01:12.553Z,989.46
2023-01-30T12:02:12.571Z,989.27
2023-01-30T12:03:12.573Z,989.51
2023-01-30T12:04:14.340Z,989.26
2023-01-30T12:05:12.524Z,989.26
2023-01-30T12:06:12.574Z,989.24
2023-01-30T12:07:12.638Z,989.21
2023-01-30T12:08:12.541Z,989.24
2023-01-30T12:09:12.555Z,989.25
2023-01-30T12:10:12.592Z,989.30
2023-01-30T12:11:12.430Z,989.23
2023-01-30T12:12:12.417Z,989.23
2023-01-30T12:13:12.476Z,989.33
2023-01-30T12:14:12.402Z,989.35
2023-01-30T12:15:13.411Z,989.38
2023-01-30T12:16:12.497Z,989.31
2023-01-30T12:17:12.344Z,989.23
2023-01-30T12:18:12.363Z,989.26
2023-01-30T12:19:12.398Z,989.37
2023-01-30T12:20:12.536Z,989.24
2023-01-30T12:21:13.074Z,989.32
2023-01-30T12:22:12.379Z,989.36
2023-01-30T12:23:12.366Z,989.15
2023-01-30T12:24:12.294Z,989.35
2023-01-30T12:25:12.296Z,989.44
2023-01-30T12:26:12.370Z,989.27
2023-01-30T12:27:12.305Z,989.45
2023-01-30T12:28:12.279Z,989.40